Time;durP1;ratioP1;P1;durP2;ratioP2;P2;SDS_P1;SDS_P2;PMS_P1;PMS_P2;Temp;Humidity;BMP_temperature;BMP_pressure;BME280_temperature;BME280_humidity;BME280_pressure;Samples;Min_cycle;Max_cycle;Signal;HPM_P1;HPM_P2
2023/08/18 00:01:16;;;;;;;5.38;3.67;;;;;;;26.67;45.21;99605.47;5090538;28;20413;-46
2023/08/18 00:03:42;;;;;;;5.53;3.97;;;;;;;26.53;45.22;99600.06;5090403;28;20472;-45
2023/08/18 00:06:07;;;;;;;6.30;3.70;;;;;;;26.64;44.89;99602.56;5090015;28;20035;-43
2023/08/18 00:08:32;;;;;;;4.57;3.65;;;;;;;26.40;45.26;99600.97;5090637;28;20039;-43
2023/08/18 00:10:59;;;;;;;8.52;3.67;;;;;;;26.30;45.67;99601.22;5090461;28;20035;-46
2023/08/18 00:13:24;;;;;;;5.72;3.75;;;;;;;26.47;45.17;99595.88;5090443;28;20119;-43
2023/08/18 00:15:50;;;;;;;4.80;3.70;;;;;;;26.42;45.32;99601.44;5090347;28;20058;-43
2023/08/18 00:18:15;;;;;;;5.22;3.40;;;;;;;26.47;45.19;99598.59;5090169;28;20165;-48
2023/08/18 00:20:40;;;;;;;4.15;3.75;;;;;;;26.64;44.69;99597.91;5090348;28;20016;-45
2023/08/18 00:23:06;;;;;;;4.40;3.53;;;;;;;26.70;44.46;99595.84;5090278;28;20526;-45
2023/08/18 00:25:31;;;;;;;6.53;3.55;;;;;;;26.75;44.56;99592.97;5090376;28;20163;-42
2023/08/18 00:27:57;;;;;;;7.22;3.75;;;;;;;26.84;44.21;99598.47;5090252;28;20020;-44
2023/08/18 00:30:24;;;;;;;5.22;3.78;;;;;;;26.86;44.17;99598.94;5090331;28;20031;-42
2023/08/18 00:32:50;;;;;;;5.55;3.80;;;;;;;26.74;44.65;99596.81;5090100;28;20100;-42
2023/08/18 00:35:16;;;;;;;7.55;3.83;;;;;;;26.80;44.17;99602.94;5090177;28;20020;-46
2023/08/18 00:37:43;;;;;;;4.25;3.60;;;;;;;26.82;44.26;99592.50;5089984;28;20032;-45
2023/08/18 00:40:11;;;;;;;6.03;3.60;;;;;;;26.87;44.52;99592.38;5090074;28;20538;-45
2023/08/18 00:42:36;;;;;;;4.75;3.58;;;;;;;26.92;44.31;99587.59;5089994;28;20032;-46
2023/08/18 00:45:02;;;;;;;5.70;3.92;;;;;;;26.87;44.51;99595.91;5090097;28;20073;-46
2023/08/18 00:47:29;;;;;;;5.53;3.53;;;;;;;26.75;44.41;99598.44;5090124;28;20027;-43
2023/08/18 00:49:57;;;;;;;5.45;4.03;;;;;;;26.75;44.12;99589.44;5089983;28;20467;-43
2023/08/18 00:52:23;;;;;;;8.40;3.80;;;;;;;26.34;44.98;99602.22;5090098;28;20024;-43
2023/08/18 00:54:51;;;;;;;6.28;3.67;;;;;;;26.05;45.31;99603.47;5090080;28;20091;-44
2023/08/18 00:57:18;;;;;;;8.10;3.83;;;;;;;26.22;45.13;99607.44;5089839;28;20103;-47
2023/08/18 00:59:44;;;;;;;6.50;3.90;;;;;;;26.30;44.99;99603.97;5089969;28;20035;-44
2023/08/18 01:02:09;;;;;;;7.35;3.63;;;;;;;26.20;45.05;99598.75;5089689;28;20103;-43
2023/08/18 01:04:35;;;;;;;5.78;3.67;;;;;;;26.28;45.00;99606.19;5089865;28;20092;-44
2023/08/18 01:07:00;;;;;;;6.95;4.10;;;;;;;26.18;45.17;99601.81;5090047;28;20094;-44
2023/08/18 01:09:28;;;;;;;5.35;3.60;;;;;;;26.15;44.93;99607.88;5089740;28;20020;-43
2023/08/18 01:12:15;;;;;;;7.05;3.58;;;;;;;26.26;45.12;99597.53;5090635;28;20020;-43
2023/08/18 01:15:12;;;;;;;5.20;4.00;;;;;;;26.14;45.82;99606.25;5090690;28;20028;-47
2023/08/18 01:17:45;;;;;;;5.20;3.80;;;;;;;26.26;45.71;99603.78;5090818;28;20048;-43
2023/08/18 01:20:11;;;;;;;6.18;4.07;;;;;;;26.02;46.56;99612.25;5094288;28;20024;-43
2023/08/18 01:22:38;;;;;;;6.57;4.10;;;;;;;26.06;46.85;99607.00;5093843;28;20020;-44
2023/08/18 01:25:04;;;;;;;7.25;4.20;;;;;;;26.00;46.96;99609.03;5094463;28;20110;-44
2023/08/18 01:27:31;;;;;;;5.28;4.20;;;;;;;25.83;47.56;99606.16;5094121;28;20044;-45
2023/08/18 01:29:57;;;;;;;8.07;4.40;;;;;;;26.04;47.16;99609.22;5094022;28;20356;-46
2023/08/18 01:32:30;;;;;;;5.47;4.38;;;;;;;25.85;47.74;99603.94;5087899;28;20440;-45
2023/08/18 01:34:59;;;;;;;6.63;4.50;;;;;;;25.88;48.24;99609.56;5073701;28;20034;-44
2023/08/18 01:37:27;;;;;;;7.65;4.38;;;;;;;25.79;48.43;99603.25;5088032;28;20039;-47
2023/08/18 01:39:54;;;;;;;6.63;5.10;;;;;;;25.60;49.12;99597.94;5091279;28;20064;-46
2023/08/18 01:42:20;;;;;;;7.05;4.50;;;;;;;25.58;49.00;99613.00;5093695;28;20055;-44
2023/08/18 01:44:46;;;;;;;8.68;4.90;;;;;;;25.42;49.66;99604.34;5093749;28;20032;-41
2023/08/18 01:47:11;;;;;;;8.32;4.65;;;;;;;25.36;49.75;99601.75;5094298;28;20035;-44
2023/08/18 01:49:37;;;;;;;6.55;4.75;;;;;;;25.39;49.78;99607.69;5094055;28;20239;-46
2023/08/18 01:52:02;;;;;;;6.50;4.70;;;;;;;25.37;50.12;99613.44;5094004;28;20424;-46
2023/08/18 01:54:28;;;;;;;9.18;5.10;;;;;;;25.32;49.96;99600.75;5093972;28;20126;-47
2023/08/18 01:56:53;;;;;;;7.63;4.80;;;;;;;25.42;50.12;99604.34;5093236;28;20116;-46
2023/08/18 01:59:18;;;;;;;10.70;5.30;;;;;;;25.44;49.59;99585.81;5093176;28;20396;-48
2023/08/18 02:01:45;;;;;;;7.53;5.07;;;;;;;25.29;50.58;99600.56;5093389;28;20024;-45
2023/08/18 02:04:10;;;;;;;6.35;4.80;;;;;;;25.40;50.27;99598.41;5093341;28;20023;-45
2023/08/18 02:06:35;;;;;;;6.20;4.82;;;;;;;25.30;50.58;99600.25;5093158;28;20047;-44
2023/08/18 02:09:01;;;;;;;13.25;4.88;;;;;;;25.18;50.97;99597.19;5093269;28;20476;-45
2023/08/18 02:11:26;;;;;;;7.13;4.90;;;;;;;25.06;51.06;99570.50;5093406;28;20074;-43
2023/08/18 02:13:52;;;;;;;8.15;5.63;;;;;;;25.16;51.11;99592.06;5093224;28;20039;-47
2023/08/18 02:16:17;;;;;;;7.63;5.50;;;;;;;25.12;51.20;99592.97;5093237;28;20034;-44
2023/08/18 02:18:43;;;;;;;9.20;5.13;;;;;;;25.25;51.12;99591.38;5093074;28;20027;-45
2023/08/18 02:21:08;;;;;;;6.68;5.10;;;;;;;25.25;50.88;99594.91;5093092;28;20032;-44
2023/08/18 02:23:34;;;;;;;8.90;5.53;;;;;;;25.34;50.61;99593.06;5093025;28;20024;-43
2023/08/18 02:26:04;;;;;;;8.45;5.82;;;;;;;25.32;50.82;99586.31;5093101;28;20028;-45
2023/08/18 02:28:30;;;;;;;13.27;5.63;;;;;;;25.73;49.72;99594.38;5093140;28;20054;-44
2023/08/18 02:31:05;;;;;;;8.98;6.20;;;;;;;26.10;48.96;99584.28;5092796;28;20036;-41
2023/08/18 02:33:32;;;;;;;9.27;5.85;;;;;;;26.34;48.35;99596.75;5092815;28;20396;-44
2023/08/18 02:36:01;;;;;;;9.50;5.63;;;;;;;26.42;47.97;99596.00;5092997;28;20142;-43
2023/08/18 02:38:28;;;;;;;8.40;5.78;;;;;;;26.39;48.23;99585.72;5092241;28;20058;-45
2023/08/18 02:40:54;;;;;;;9.77;6.40;;;;;;;26.38;48.18;99583.31;5092927;28;20043;-45
2023/08/18 02:43:21;;;;;;;14.38;5.93;;;;;;;26.37;48.16;99598.88;5092925;28;20032;-44
2023/08/18 02:45:46;;;;;;;15.43;6.35;;;;;;;26.37;48.28;99596.13;5092679;28;20058;-46
2023/08/18 02:48:12;;;;;;;13.73;6.50;;;;;;;26.26;48.68;99597.53;5092761;28;20099;-43
2023/08/18 02:50:38;;;;;;;12.75;6.10;;;;;;;26.25;48.75;99599.41;5092755;28;20517;-46
2023/08/18 02:53:04;;;;;;;15.38;6.60;;;;;;;26.26;48.70;99603.78;5092265;28;20024;-43
2023/08/18 02:55:30;;;;;;;9.30;6.30;;;;;;;25.27;51.36;99598.13;5092562;28;20075;-46
2023/08/18 02:57:55;;;;;;;10.65;6.20;;;;;;;24.81;53.05;99603.66;5092050;28;20032;-44
2023/08/18 03:00:21;;;;;;;7.88;5.65;;;;;;;24.72;53.31;99609.00;5092043;28;20034;-43
2023/08/18 03:02:46;;;;;;;11.25;6.22;;;;;;;24.72;53.73;99612.53;5092217;28;20030;-42
2023/08/18 03:05:12;;;;;;;14.38;7.10;;;;;;;24.96;53.15;99611.53;5091984;28;20109;-43
2023/08/18 03:07:37;;;;;;;33.80;24.02;;;;;;;25.04;53.24;99599.13;5091812;28;20107;-43
2023/08/18 03:10:03;;;;;;;15.13;10.48;;;;;;;25.17;53.11;99609.22;5091937;28;20111;-42
2023/08/18 03:12:28;;;;;;;57.28;35.38;;;;;;;25.43;52.62;99604.03;5092194;28;20024;-42
2023/08/18 03:14:54;;;;;;;92.88;59.42;;;;;;;25.55;52.29;99608.94;5091351;28;20394;-43
2023/08/18 03:17:20;;;;;;;17.50;12.02;;;;;;;25.41;52.65;99605.47;5091556;28;20069;-45
2023/08/18 03:19:45;;;;;;;10.77;6.50;;;;;;;25.29;52.89;99606.00;5090242;28;20035;-41
2023/08/18 03:22:11;;;;;;;12.02;5.95;;;;;;;25.38;52.69;99604.16;5089441;28;20055;-43
2023/08/18 03:24:36;;;;;;;10.18;6.10;;;;;;;25.70;51.62;99608.63;5089255;28;20024;-44
2023/08/18 03:27:02;;;;;;;9.68;6.10;;;;;;;25.58;51.97;99605.63;5089153;28;20479;-44
2023/08/18 03:29:28;;;;;;;9.18;5.85;;;;;;;25.13;53.09;99610.91;5089202;28;20039;-41
2023/08/18 03:31:53;;;;;;;14.43;5.88;;;;;;;24.94;53.87;99616.44;5089435;28;20027;-42
2023/08/18 03:34:19;;;;;;;11.98;5.82;;;;;;;24.98;53.69;99614.75;5089925;28;20023;-43
2023/08/18 03:36:44;;;;;;;8.30;5.50;;;;;;;24.96;53.54;99617.78;5090308;28;20032;-42
2023/08/18 03:39:09;;;;;;;10.02;5.70;;;;;;;25.08;53.14;99609.09;5089709;28;20139;-44
2023/08/18 03:41:37;;;;;;;8.98;5.82;;;;;;;25.82;50.91;99605.34;5090193;28;20039;-47
2023/08/18 03:44:02;;;;;;;17.25;12.13;;;;;;;25.12;52.47;99587.53;5091040;28;20075;-45
2023/08/18 03:46:28;;;;;;;13.20;8.50;;;;;;;25.02;53.32;99615.78;5091119;28;20558;-44
2023/08/18 03:48:54;;;;;;;9.27;6.10;;;;;;;25.05;53.33;99617.88;5091008;28;20016;-44
2023/08/18 03:51:20;;;;;;;10.30;5.43;;;;;;;25.08;53.13;99621.91;5090786;28;20496;-48
2023/08/18 03:53:46;;;;;;;7.55;5.22;;;;;;;25.13;52.63;99622.63;5090777;28;20024;-45
2023/08/18 03:56:11;;;;;;;10.02;5.00;;;;;;;25.16;52.04;99619.28;5091080;28;20028;-42
2023/08/18 03:58:37;;;;;;;7.80;5.18;;;;;;;25.11;51.78;99621.28;5090711;28;20028;-45
2023/08/18 04:01:08;;;;;;;8.90;5.80;;;;;;;25.08;52.01;99619.19;5090973;28;20096;-42
2023/08/18 04:03:38;;;;;;;7.60;5.03;;;;;;;24.99;52.29;99621.81;5090820;28;20046;-43
2023/08/18 04:06:04;;;;;;;8.55;5.13;;;;;;;24.91;52.57;99619.78;5090551;28;20101;-43
2023/08/18 04:08:34;;;;;;;7.20;5.20;;;;;;;24.95;52.72;99627.03;5090332;28;20028;-45
2023/08/18 04:10:59;;;;;;;9.10;5.10;;;;;;;25.05;52.86;99633.41;5090575;28;20031;-42
2023/08/18 04:13:25;;;;;;;6.65;5.38;;;;;;;25.12;52.85;99617.47;5090610;28;20415;-46
2023/08/18 04:15:50;;;;;;;8.65;5.43;;;;;;;25.15;52.91;99620.41;5090415;28;20057;-45
2023/08/18 04:18:16;;;;;;;8.27;5.50;;;;;;;25.19;52.82;99620.59;5090430;28;20032;-43
2023/08/18 04:20:41;;;;;;;9.68;6.82;;;;;;;25.30;52.80;99626.66;5090546;28;20119;-43
2023/08/18 04:23:07;;;;;;;14.55;6.10;;;;;;;25.44;52.57;99624.72;5101762;28;20110;-42
2023/08/18 04:25:32;;;;;;;8.80;5.97;;;;;;;25.69;52.08;99628.00;5067661;28;20373;-41
2023/08/18 04:27:58;;;;;;;7.30;5.50;;;;;;;25.90;51.69;99629.13;5088788;28;20024;-42
2023/08/18 04:30:23;;;;;;;12.60;6.93;;;;;;;26.19;50.86;99624.41;5090649;28;20020;-42
2023/08/18 04:32:50;;;;;;;9.82;5.78;;;;;;;26.38;50.09;99632.41;5090477;28;20081;-42
2023/08/18 04:35:16;;;;;;;8.82;5.43;;;;;;;26.45;49.75;99628.13;5097297;28;20051;-41
2023/08/18 04:37:41;;;;;;;8.55;5.18;;;;;;;26.71;49.04;99624.72;5100923;28;20177;-43
2023/08/18 04:40:07;;;;;;;7.47;5.40;;;;;;;26.59;49.11;99627.22;5091169;28;20028;-43
2023/08/18 04:42:33;;;;;;;9.48;5.15;;;;;;;26.88;48.15;99629.47;5090888;28;20024;-44
2023/08/18 04:44:58;;;;;;;7.40;5.10;;;;;;;27.05;47.76;99626.78;5090860;28;20080;-43
2023/08/18 04:47:24;;;;;;;11.35;5.22;;;;;;;27.20;47.31;99625.56;5090723;28;20031;-44
2023/08/18 04:49:49;;;;;;;7.80;5.20;;;;;;;27.48;46.31;99633.53;5091172;28;20035;-45
2023/08/18 04:52:15;;;;;;;8.63;5.13;;;;;;;27.81;45.29;99631.13;5090763;28;20077;-46
2023/08/18 04:54:40;;;;;;;7.40;4.80;;;;;;;28.06;44.60;99637.78;5093251;28;20020;-44
2023/08/18 04:57:07;;;;;;;7.80;5.00;;;;;;;28.32;44.25;99642.38;5093361;28;20401;-42
2023/08/18 04:59:33;;;;;;;7.68;5.50;;;;;;;28.59;43.25;99646.69;5094809;28;20116;-41
2023/08/18 05:01:58;;;;;;;8.85;4.53;;;;;;;28.65;42.89;99652.78;5094550;28;20114;-43
2023/08/18 05:04:24;;;;;;;6.28;4.40;;;;;;;28.79;42.43;99652.63;5094899;28;20034;-43
2023/08/18 05:06:49;;;;;;;7.82;4.32;;;;;;;29.17;41.45;99647.16;5094794;28;20431;-44
2023/08/18 05:09:15;;;;;;;7.88;4.40;;;;;;;29.69;39.82;99635.03;5095050;28;20085;-43
2023/08/18 05:11:40;;;;;;;6.90;4.38;;;;;;;29.83;39.53;99645.75;5094706;28;20127;-44
2023/08/18 05:14:06;;;;;;;8.18;4.80;;;;;;;29.98;39.65;99656.13;5094371;28;20081;-43
2023/08/18 05:16:31;;;;;;;8.38;5.72;;;;;;;30.49;38.49;99646.97;5089773;28;20032;-45
2023/08/18 05:18:58;;;;;;;8.57;4.78;;;;;;;30.04;39.41;99650.44;5082678;28;20622;-45
2023/08/18 05:21:24;;;;;;;10.57;4.57;;;;;;;30.14;38.98;99647.25;5094295;28;20034;-45
2023/08/18 05:23:49;;;;;;;9.57;4.55;;;;;;;30.36;38.64;99646.91;5094122;28;20027;-46
2023/08/18 05:26:15;;;;;;;8.40;4.50;;;;;;;30.45;38.75;99646.03;5094031;28;20028;-44
2023/08/18 05:28:40;;;;;;;5.63;4.30;;;;;;;30.56;38.89;99636.25;5092630;28;20039;-43
2023/08/18 05:31:10;;;;;;;9.95;6.93;;;;;;;30.63;38.46;99649.38;5091884;28;20057;-43
2023/08/18 05:33:36;;;;;;;7.85;5.03;;;;;;;30.78;38.16;99645.97;5093171;28;20031;-42
2023/08/18 05:36:03;;;;;;;7.70;4.65;;;;;;;30.92;37.82;99646.50;5093342;28;20031;-41
2023/08/18 05:38:29;;;;;;;10.52;4.40;;;;;;;31.18;37.75;99645.34;5093355;28;20462;-41
2023/08/18 05:41:13;;;;;;;7.90;4.97;;;;;;;31.38;37.14;99640.88;5093446;28;20024;-42
2023/08/18 05:43:40;;;;;;;9.90;4.80;;;;;;;31.65;36.70;99649.56;5092997;28;20067;-43
2023/08/18 05:46:06;;;;;;;12.07;4.38;;;;;;;32.01;35.82;99647.84;5092958;28;20396;-43
2023/08/18 05:48:32;;;;;;;9.27;4.03;;;;;;;32.04;35.92;99649.91;5093248;28;20474;-42
2023/08/18 05:50:58;;;;;;;7.80;4.80;;;;;;;32.26;35.79;99643.84;5093307;28;20439;-42
2023/08/18 05:53:24;;;;;;;10.10;4.75;;;;;;;32.23;35.70;99641.78;5093036;28;20058;-45
2023/08/18 05:55:50;;;;;;;8.07;4.30;;;;;;;32.54;35.22;99656.78;5092855;28;20360;-43
2023/08/18 05:58:16;;;;;;;8.38;4.80;;;;;;;32.51;35.36;99647.25;5092774;28;20028;-41
2023/08/18 06:00:41;;;;;;;6.78;4.25;;;;;;;33.05;34.43;99661.59;5060162;28;20029;-44
2023/08/18 06:03:07;;;;;;;5.78;4.28;;;;;;;33.48;34.25;99648.84;5073589;28;20117;-44
2023/08/18 06:05:34;;;;;;;9.95;4.45;;;;;;;34.02;33.33;99655.50;5072466;28;20115;-41
2023/08/18 06:07:59;;;;;;;9.57;4.78;;;;;;;33.53;33.34;99667.06;5072655;28;20043;-41
2023/08/18 06:10:25;;;;;;;9.95;5.72;;;;;;;32.60;34.66;99658.13;5072531;28;20440;-41
2023/08/18 06:12:50;;;;;;;7.70;5.30;;;;;;;32.97;33.89;99657.88;5072240;28;20039;-42
2023/08/18 06:15:19;;;;;;;10.07;4.85;;;;;;;33.37;33.74;99664.34;5072209;28;20028;-42
2023/08/18 06:17:45;;;;;;;7.78;4.13;;;;;;;33.55;32.84;99660.03;5071032;28;20450;-43
2023/08/18 06:20:11;;;;;;;6.53;4.28;;;;;;;33.86;32.99;99661.09;5070395;28;20514;-44
2023/08/18 06:22:37;;;;;;;9.30;4.95;;;;;;;34.06;32.06;99662.72;5070855;28;20021;-44
2023/08/18 06:25:06;;;;;;;10.70;4.65;;;;;;;34.38;32.26;99640.44;5070951;28;20107;-44
2023/08/18 06:27:32;;;;;;;7.55;4.30;;;;;;;35.54;30.47;99654.19;5071516;28;20147;-44
2023/08/18 06:29:57;;;;;;;12.18;4.45;;;;;;;35.29;30.57;99657.38;5071625;28;20034;-46
2023/08/18 06:32:22;;;;;;;5.03;4.05;;;;;;;34.60;31.79;99647.16;5071700;28;20078;-43
2023/08/18 06:34:50;;;;;;;7.80;4.28;;;;;;;34.60;31.80;99657.41;5072175;28;20156;-46
2023/08/18 06:37:15;;;;;;;9.70;4.87;;;;;;;34.78;31.74;99654.97;5071717;28;20042;-42
2023/08/18 06:39:41;;;;;;;8.95;4.78;;;;;;;35.24;30.47;99650.22;5071320;28;20052;-43
2023/08/18 06:42:06;;;;;;;8.38;4.57;;;;;;;35.39;30.20;99651.19;5071980;28;20508;-43
2023/08/18 06:44:34;;;;;;;9.18;4.57;;;;;;;35.63;30.07;99649.16;5072043;28;20034;-45
2023/08/18 06:47:00;;;;;;;11.32;4.22;;;;;;;35.76;30.47;99650.56;5071690;28;20589;-41
2023/08/18 06:49:25;;;;;;;11.32;4.55;;;;;;;36.42;29.40;99652.88;5071690;28;20424;-45
2023/08/18 06:51:51;;;;;;;8.38;5.20;;;;;;;35.43;30.38;99645.72;5071551;28;20028;-47
2023/08/18 06:54:16;;;;;;;7.05;4.75;;;;;;;35.38;30.85;99651.59;5071554;28;20020;-44
2023/08/18 06:56:43;;;;;;;8.05;4.40;;;;;;;35.58;30.67;99655.03;5071341;28;20477;-42
2023/08/18 06:59:09;;;;;;;11.35;4.25;;;;;;;35.51;30.01;99652.16;5071247;28;20516;-44
2023/08/18 07:01:34;;;;;;;7.45;4.75;;;;;;;35.51;30.67;99646.63;5071674;28;20186;-44
2023/08/18 07:04:00;;;;;;;7.68;4.75;;;;;;;35.82;30.13;99656.56;5071586;28;20400;-46
2023/08/18 07:06:25;;;;;;;7.15;4.07;;;;;;;35.87;30.12;99642.38;5071309;28;20508;-45
2023/08/18 07:08:51;;;;;;;8.15;4.20;;;;;;;36.04;29.92;99651.25;5071323;28;20012;-46
2023/08/18 07:11:16;;;;;;;5.72;3.80;;;;;;;36.20;29.73;99649.13;5071381;28;20039;-43
2023/08/18 07:13:42;;;;;;;7.68;3.90;;;;;;;35.79;29.96;99644.25;5071183;28;20036;-44
2023/08/18 07:16:08;;;;;;;5.78;4.40;;;;;;;36.16;29.55;99635.19;5070117;28;20158;-41
2023/08/18 07:18:33;;;;;;;8.40;4.38;;;;;;;36.33;29.34;99641.34;5070636;28;20501;-40
2023/08/18 07:20:59;;;;;;;4.25;3.83;;;;;;;36.36;29.42;99626.72;5070997;28;20027;-42
2023/08/18 07:23:25;;;;;;;6.75;3.85;;;;;;;36.35;29.36;99630.66;5070820;28;20547;-46
2023/08/18 07:25:51;;;;;;;13.48;4.00;;;;;;;36.59;29.31;99632.88;5070985;28;20031;-43
2023/08/18 07:28:16;;;;;;;6.82;3.83;;;;;;;36.60;29.24;99625.34;5070801;28;20043;-43
2023/08/18 07:30:42;;;;;;;9.05;4.10;;;;;;;36.56;28.38;99635.63;5070582;28;20089;-43
2023/08/18 07:33:07;;;;;;;6.15;3.90;;;;;;;36.17;28.74;99634.03;5070953;28;20024;-44
2023/08/18 07:35:33;;;;;;;5.18;4.05;;;;;;;36.43;29.12;99634.31;5070958;28;20047;-44
2023/08/18 07:37:58;;;;;;;6.60;4.00;;;;;;;36.62;29.11;99633.28;5070725;28;20518;-44
2023/08/18 07:40:23;;;;;;;8.13;4.13;;;;;;;36.93;28.50;99634.75;5070463;28;20020;-43
2023/08/18 07:42:49;;;;;;;7.60;3.95;;;;;;;37.07;28.44;99632.09;5070796;28;20028;-43
2023/08/18 07:45:14;;;;;;;5.07;3.90;;;;;;;36.77;28.33;99632.25;5070667;28;20040;-45
2023/08/18 07:47:42;;;;;;;6.60;3.97;;;;;;;36.67;28.64;99632.94;5070466;28;20012;-45
2023/08/18 07:50:11;;;;;;;5.10;3.60;;;;;;;37.30;27.96;99634.63;5070684;28;20017;-44
2023/08/18 07:52:38;;;;;;;4.65;3.47;;;;;;;37.58;26.83;99635.16;5070623;28;20032;-44
2023/08/18 07:55:04;;;;;;;4.70;3.40;;;;;;;37.23;27.39;99633.81;5070475;28;20028;-43
2023/08/18 07:57:30;;;;;;;6.38;3.55;;;;;;;37.25;27.22;99634.22;5070893;28;20025;-45
2023/08/18 07:59:56;;;;;;;4.90;3.60;;;;;;;37.30;27.75;99644.91;5070705;28;20031;-43
2023/08/18 08:02:22;;;;;;;4.75;3.38;;;;;;;37.42;27.71;99639.06;5070646;28;20028;-43
2023/08/18 08:04:47;;;;;;;8.93;3.90;;;;;;;37.64;27.10;99634.44;5070627;28;20082;-43
2023/08/18 08:07:13;;;;;;;10.77;3.53;;;;;;;37.74;26.53;99644.78;5070025;28;20017;-44
2023/08/18 08:09:39;;;;;;;4.80;3.63;;;;;;;37.55;27.12;99633.97;5070139;28;20082;-43
2023/08/18 08:12:05;;;;;;;6.25;3.60;;;;;;;37.29;27.18;99630.25;5069999;28;20039;-44
2023/08/18 08:14:30;;;;;;;5.50;3.38;;;;;;;37.40;27.64;99626.75;5070103;28;20131;-44
2023/08/18 08:16:55;;;;;;;8.38;3.58;;;;;;;37.93;26.89;99638.13;5070173;28;20586;-43
2023/08/18 08:19:21;;;;;;;5.43;3.72;;;;;;;38.01;26.71;99636.16;5070068;28;20457;-43
2023/08/18 08:21:47;;;;;;;5.82;3.55;;;;;;;38.15;26.72;99629.88;5070003;28;20024;-42
2023/08/18 08:24:12;;;;;;;5.47;3.60;;;;;;;38.22;26.35;99637.44;5070215;28;20028;-44
2023/08/18 08:26:37;;;;;;;6.72;3.45;;;;;;;38.01;25.90;99618.72;5070373;28;20044;-43
2023/08/18 08:29:03;;;;;;;3.60;3.25;;;;;;;37.76;26.15;99616.66;5069805;28;20008;-44
2023/08/18 08:31:29;;;;;;;6.10;3.63;;;;;;;37.09;27.60;99620.59;5070261;28;20370;-44
2023/08/18 08:33:54;;;;;;;4.90;3.40;;;;;;;37.40;27.31;99619.22;5070206;28;20515;-43
2023/08/18 08:36:19;;;;;;;8.15;3.75;;;;;;;37.14;27.03;99615.50;5070258;28;20024;-43
2023/08/18 08:38:45;;;;;;;6.88;3.90;;;;;;;37.55;26.91;99614.56;5069792;28;20044;-43
2023/08/18 08:41:10;;;;;;;6.95;3.80;;;;;;;37.72;26.59;99613.06;5070199;28;20024;-43
2023/08/18 08:43:36;;;;;;;5.03;3.70;;;;;;;37.73;26.73;99609.09;5069859;28;20388;-43
2023/08/18 08:46:01;;;;;;;5.35;3.63;;;;;;;37.71;26.72;99598.38;5069639;28;20021;-43
2023/08/18 08:48:33;;;;;;;6.13;3.60;;;;;;;37.78;26.79;99603.16;5069906;28;20021;-43
2023/08/18 08:51:03;;;;;;;7.65;3.80;;;;;;;37.83;26.07;99599.19;5069970;28;20031;-42
2023/08/18 08:53:35;;;;;;;6.25;3.55;;;;;;;37.02;27.30;99593.63;5069745;28;20052;-43
2023/08/18 08:56:02;;;;;;;5.32;3.53;;;;;;;36.60;28.35;99590.13;5069880;28;20095;-41
2023/08/18 08:58:32;;;;;;;9.00;3.90;;;;;;;36.46;27.89;99587.25;5069880;28;20028;-47
2023/08/18 09:01:01;;;;;;;6.53;3.90;;;;;;;35.81;28.49;99586.56;5069989;28;20036;-43
2023/08/18 09:03:29;;;;;;;8.00;3.75;;;;;;;35.94;29.00;99580.75;5069826;28;20028;-42
2023/08/18 09:05:55;;;;;;;4.20;3.70;;;;;;;36.68;27.73;99587.44;5069896;28;20042;-43
2023/08/18 09:08:21;;;;;;;4.18;3.30;;;;;;;36.79;27.79;99582.78;5069950;28;20017;-43
2023/08/18 09:10:47;;;;;;;5.18;3.58;;;;;;;36.12;28.75;99578.97;5069738;28;20480;-43
2023/08/18 09:13:12;;;;;;;5.07;3.75;;;;;;;36.64;27.81;99572.75;5069978;28;20031;-44
2023/08/18 09:15:44;;;;;;;9.10;3.90;;;;;;;36.13;28.42;99569.47;5069923;28;20024;-43
2023/08/18 09:18:11;;;;;;;5.10;3.78;;;;;;;35.69;28.86;99572.97;5069391;28;20020;-43
2023/08/18 09:20:37;;;;;;;4.57;3.67;;;;;;;35.41;29.49;99565.91;5069272;28;20032;-44
2023/08/18 09:23:03;;;;;;;4.43;3.47;;;;;;;36.36;28.74;99568.53;5069162;28;20263;-44
2023/08/18 09:25:30;;;;;;;5.90;3.70;;;;;;;35.85;28.82;99563.66;5069512;28;20082;-43
2023/08/18 09:27:56;;;;;;;5.30;3.47;;;;;;;36.18;28.02;99560.88;5069962;28;20027;-43
2023/08/18 09:30:23;;;;;;;3.83;3.45;;;;;;;35.26;29.01;99574.38;5069656;28;20024;-43
2023/08/18 09:32:49;;;;;;;4.72;3.40;;;;;;;34.58;30.49;99568.59;5069251;28;20082;-43
2023/08/18 09:35:19;;;;;;;3.70;3.30;;;;;;;34.77;30.51;99565.75;5069251;28;20035;-42
2023/08/18 09:37:53;;;;;;;3.70;3.30;;;;;;;34.80;30.76;99567.78;5069315;28;20025;-44
2023/08/18 09:40:18;;;;;;;4.13;3.50;;;;;;;35.04;30.21;99571.28;5071791;28;20456;-46
2023/08/18 09:42:44;;;;;;;9.40;3.53;;;;;;;34.06;31.09;99568.03;5072841;28;20025;-43
2023/08/18 09:45:10;;;;;;;4.90;3.55;;;;;;;34.23;30.79;99566.81;5072794;28;20090;-44
2023/08/18 09:47:37;;;;;;;5.07;3.63;;;;;;;34.88;30.55;99567.88;5072795;28;20020;-42
2023/08/18 09:50:05;;;;;;;6.28;3.55;;;;;;;34.71;30.10;99571.97;5072977;28;20096;-45
2023/08/18 09:52:33;;;;;;;7.00;3.60;;;;;;;34.75;30.20;99557.06;5072678;28;20031;-45
2023/08/18 09:55:16;;;;;;;5.40;3.47;;;;;;;35.13;29.69;99577.34;5054828;28;20119;-42
2023/08/18 09:58:05;;;;;;;5.53;3.60;;;;;;;35.89;28.92;99561.72;5072432;28;20089;-42
2023/08/18 10:00:32;;;;;;;5.82;4.10;;;;;;;35.26;29.30;99574.38;5072541;28;20381;-42
2023/08/18 10:03:03;;;;;;;6.30;3.50;;;;;;;34.59;30.24;99570.16;5072424;28;20020;-43
2023/08/18 10:05:29;;;;;;;5.95;3.50;;;;;;;34.44;30.35;99571.91;5072483;28;20029;-44
2023/08/18 10:07:55;;;;;;;6.95;3.45;;;;;;;34.20;30.57;99579.38;5072459;28;20498;-43
2023/08/18 10:10:21;;;;;;;6.20;3.80;;;;;;;34.27;30.53;99571.25;5072590;28;20103;-44
2023/08/18 10:12:47;;;;;;;5.55;3.33;;;;;;;34.16;30.17;99544.63;5072736;28;20112;-46
2023/08/18 10:15:14;;;;;;;7.95;3.47;;;;;;;34.47;30.43;99571.97;5072633;28;20031;-44
2023/08/18 10:17:40;;;;;;;5.40;3.60;;;;;;;34.51;29.90;99560.19;5072470;28;20028;-44
2023/08/18 10:20:10;;;;;;;8.60;3.72;;;;;;;34.85;29.84;99566.66;5072596;28;20031;-45
2023/08/18 10:22:36;;;;;;;5.00;3.88;;;;;;;34.37;30.62;99561.53;5072338;28;20024;-45
2023/08/18 10:25:04;;;;;;;3.70;3.40;;;;;;;34.76;30.69;99553.09;5072167;28;20479;-43
2023/08/18 10:27:29;;;;;;;7.47;3.65;;;;;;;35.11;29.69;99551.22;5072549;28;20027;-45
2023/08/18 10:30:15;;;;;;;5.25;3.60;;;;;;;35.23;28.93;99537.22;5072343;28;20024;-42
2023/08/18 10:32:41;;;;;;;7.10;3.40;;;;;;;35.19;29.23;99550.22;5057610;28;20040;-45
2023/08/18 10:35:22;;;;;;;5.25;3.63;;;;;;;35.16;29.46;99542.63;5071940;28;20021;-43
2023/08/18 10:37:56;;;;;;;3.90;3.33;;;;;;;35.38;28.85;99535.44;5072046;28;20028;-46
2023/08/18 10:40:33;;;;;;;5.32;3.60;;;;;;;35.43;29.53;99551.69;5072153;28;20031;-42
2023/08/18 10:43:07;;;;;;;4.80;3.53;;;;;;;35.53;28.95;99533.63;5071585;28;20405;-42
2023/08/18 10:45:33;;;;;;;5.15;3.50;;;;;;;35.39;28.97;99531.47;5071863;28;20020;-44
2023/08/18 10:48:00;;;;;;;7.07;3.60;;;;;;;35.86;28.66;99529.28;5071683;28;20036;-41
2023/08/18 10:50:29;;;;;;;7.05;3.40;;;;;;;35.34;28.71;99527.09;5071620;28;20026;-48
2023/08/18 10:52:56;;;;;;;5.13;3.30;;;;;;;35.92;28.64;99527.75;5071649;28;20495;-44
2023/08/18 10:55:25;;;;;;;4.05;3.20;;;;;;;36.05;27.69;99536.59;5071959;28;20013;-44
2023/08/18 10:57:52;;;;;;;6.03;3.00;;;;;;;35.42;26.94;99539.03;5071611;28;20029;-43
2023/08/18 11:00:18;;;;;;;4.88;3.10;;;;;;;35.20;26.94;99540.72;5071932;28;20089;-46
2023/08/18 11:02:51;;;;;;;6.07;2.90;;;;;;;35.03;27.43;99530.97;5071446;28;20023;-46
2023/08/18 11:05:22;;;;;;;4.25;2.90;;;;;;;34.53;27.82;99541.28;5053584;28;20028;-43
2023/08/18 11:07:50;;;;;;;6.30;3.17;;;;;;;34.69;27.52;99533.69;5071600;28;20020;-44
2023/08/18 11:10:20;;;;;;;5.83;3.17;;;;;;;35.52;26.27;99543.09;5071277;28;20036;-47
2023/08/18 11:12:48;;;;;;;6.55;2.97;;;;;;;35.54;25.84;99526.94;5071194;28;20023;-44
2023/08/18 11:15:14;;;;;;;3.67;3.00;;;;;;;35.89;25.90;99539.56;5071240;28;20105;-43
2023/08/18 11:17:41;;;;;;;5.78;2.90;;;;;;;35.59;25.76;99523.81;5071112;28;20021;-42
2023/08/18 11:20:13;;;;;;;5.07;3.00;;;;;;;35.39;26.05;99535.03;5071118;28;20210;-43
2023/08/18 11:22:44;;;;;;;7.80;3.30;;;;;;;35.89;26.36;99523.78;5071224;28;20445;-43
2023/08/18 11:25:14;;;;;;;3.22;2.83;;;;;;;35.63;26.28;99536.50;5071102;28;20115;-44
2023/08/18 11:27:41;;;;;;;6.25;3.03;;;;;;;34.94;26.82;99539.56;5071146;28;20020;-43
2023/08/18 11:30:11;;;;;;;6.32;2.90;;;;;;;35.34;26.46;99520.75;5071086;28;20101;-42